createdAt,value
2023-09-06T00:00:58.542Z,17.63
2023-09-06T00:01:56.066Z,17.62
2023-09-06T00:02:55.555Z,17.62
2023-09-06T00:03:56.181Z,17.62
2023-09-06T00:04:54.945Z,17.62
2023-09-06T00:05:53.885Z,17.62
2023-09-06T00:06:54.576Z,17.62
2023-09-06T00:07:54.083Z,17.62
2023-09-06T00:08:53.871Z,17.62
2023-09-06T00:09:54.592Z,17.61
2023-09-06T00:10:57.292Z,17.60
2023-09-06T00:11:54.379Z,17.57
2023-09-06T00:12:54.455Z,17.56
2023-09-06T00:13:54.253Z,17.56
2023-09-06T00:14:54.591Z,17.56
2023-09-06T00:15:54.621Z,17.56
2023-09-06T00:16:54.370Z,17.56
2023-09-06T00:17:53.778Z,17.56
2023-09-06T00:18:54.948Z,17.56
2023-09-06T00:19:54.351Z,17.56
2023-09-06T00:20:54.881Z,17.56
2023-09-06T00:21:54.433Z,17.56
2023-09-06T00:22:54.136Z,17.56
2023-09-06T00:23:53.333Z,17.56
2023-09-06T00:24:53.878Z,17.56
2023-09-06T00:25:54.659Z,17.56
2023-09-06T00:26:54.250Z,17.55
2023-09-06T00:27:54.042Z,17.55
2023-09-06T00:28:54.030Z,17.53
2023-09-06T00:29:53.529Z,17.51
2023-09-06T00:30:54.900Z,17.5
2023-09-06T00:31:54.674Z,17.5
2023-09-06T00:32:54.786Z,17.5
2023-09-06T00:33:54.699Z,17.5
2023-09-06T00:34:54.260Z,17.5
2023-09-06T00:35:53.873Z,17.5
2023-09-06T00:36:53.997Z,17.5
2023-09-06T00:37:53.410Z,17.5
2023-09-06T00:38:53.602Z,17.5
2023-09-06T00:39:54.193Z,17.5
2023-09-06T00:40:57.729Z,17.5
2023-09-06T00:41:54.830Z,17.5
2023-09-06T00:42:55.350Z,17.5
2023-09-06T00:43:54.306Z,17.5
2023-09-06T00:44:54.599Z,17.5
2023-09-06T00:45:55.122Z,17.5
2023-09-06T00:46:55.652Z,17.5
2023-09-06T00:47:54.750Z,17.5
2023-09-06T00:48:54.464Z,17.46
2023-09-06T00:49:54.323Z,17.44
2023-09-06T00:50:55.032Z,17.44
2023-09-06T00:51:54.124Z,17.43
2023-09-06T00:52:53.923Z,17.43
2023-09-06T00:53:54.255Z,17.43
2023-09-06T00:54:54.400Z,17.43
2023-09-06T00:55:54.850Z,17.43
2023-09-06T00:56:54.897Z,17.43
2023-09-06T00:57:54.601Z,17.43
2023-09-06T00:58:54.617Z,17.43
2023-09-06T00:59:54.222Z,17.43
2023-09-06T01:00:56.479Z,17.43
2023-09-06T01:01:54.865Z,17.43
2023-09-06T01:02:54.973Z,17.43
2023-09-06T01:03:55.219Z,17.43
2023-09-06T01:04:54.526Z,17.42
2023-09-06T01:05:54.995Z,17.43
2023-09-06T01:06:54.032Z,17.43
2023-09-06T01:07:53.625Z,17.38
2023-09-06T01:08:54.019Z,17.37
2023-09-06T01:09:53.872Z,17.37
2023-09-06T01:10:57.217Z,17.37
2023-09-06T01:11:53.735Z,17.37
2023-09-06T01:12:55.017Z,17.37
2023-09-06T01:13:54.414Z,17.37
2023-09-06T01:14:55.104Z,17.37
2023-09-06T01:15:54.885Z,17.37
2023-09-06T01:16:55.585Z,17.37
2023-09-06T01:17:54.810Z,17.37
2023-09-06T01:18:54.945Z,17.37
2023-09-06T01:19:53.701Z,17.36
2023-09-06T01:20:56.373Z,17.37
2023-09-06T01:21:54.295Z,17.32
2023-09-06T01:22:53.987Z,17.33
2023-09-06T01:23:53.509Z,17.31
2023-09-06T01:24:54.297Z,17.33
2023-09-06T01:25:54.296Z,17.32
2023-09-06T01:26:54.125Z,17.31
2023-09-06T01:27:54.040Z,17.31
2023-09-06T01:28:53.837Z,17.31
2023-09-06T01:29:54.799Z,17.31
2023-09-06T01:30:56.489Z,17.31
2023-09-06T01:31:54.685Z,17.31
2023-09-06T01:32:54.925Z,17.31
2023-09-06T01:33:55.376Z,17.31
2023-09-06T01:34:53.933Z,17.31
2023-09-06T01:35:55.168Z,17.31
2023-09-06T01:36:53.877Z,17.31
2023-09-06T01:37:54.524Z,17.31
2023-09-06T01:38:54.413Z,17.31
2023-09-06T01:39:54.158Z,17.30
2023-09-06T01:40:57.205Z,17.30
2023-09-06T01:41:54.484Z,17.31
2023-09-06T01:42:54.099Z,17.30
2023-09-06T01:43:53.490Z,17.28
2023-09-06T01:44:54.372Z,17.25
2023-09-06T01:45:54.692Z,17.25
2023-09-06T01:46:54.966Z,17.25
2023-09-06T01:47:53.241Z,17.25
2023-09-06T01:48:53.669Z,17.25
2023-09-06T01:49:53.860Z,17.25
2023-09-06T01:50:54.867Z,17.25
2023-09-06T01:51:54.633Z,17.25
2023-09-06T01:52:54.102Z,17.25
2023-09-06T01:53:53.568Z,17.25
2023-09-06T01:54:53.913Z,17.25
2023-09-06T01:55:54.234Z,17.23
2023-09-06T01:56:54.206Z,17.25
2023-09-06T01:57:54.134Z,17.25
2023-09-06T01:58:53.650Z,17.25
2023-09-06T01:59:53.998Z,17.25
2023-09-06T02:00:55.593Z,17.20
2023-09-06T02:01:54.409Z,17.20
2023-09-06T02:02:56.497Z,17.18
2023-09-06T02:03:57.073Z,17.18
2023-09-06T02:04:55.276Z,17.18
2023-09-06T02:05:53.822Z,17.18
2023-09-06T02:06:54.384Z,17.18
2023-09-06T02:07:54.049Z,17.18
2023-09-06T02:08:54.114Z,17.18
2023-09-06T02:09:54.522Z,17.18
2023-09-06T02:10:57.522Z,17.18
2023-09-06T02:11:54.616Z,17.18
2023-09-06T02:12:54.605Z,17.18
2023-09-06T02:13:54.462Z,17.18
2023-09-06T02:14:54.668Z,17.18
2023-09-06T02:15:55.218Z,17.18
2023-09-06T02:16:54.242Z,17.18
2023-09-06T02:17:54.293Z,17.18
2023-09-06T02:18:54.021Z,17.17
2023-09-06T02:19:53.493Z,17.16
2023-09-06T02:20:56.786Z,17.14
2023-09-06T02:21:54.368Z,17.15
2023-09-06T02:22:53.963Z,17.12
2023-09-06T02:23:54.295Z,17.12
2023-09-06T02:24:53.760Z,17.12
2023-09-06T02:25:54.672Z,17.12
2023-09-06T02:26:54.647Z,17.12
2023-09-06T02:27:54.100Z,17.12
2023-09-06T02:28:53.812Z,17.12
2023-09-06T02:29:54.201Z,17.12
2023-09-06T02:30:54.582Z,17.12
2023-09-06T02:31:54.131Z,17.12
2023-09-06T02:32:54.493Z,17.12
2023-09-06T02:33:54.940Z,17.12
2023-09-06T02:34:54.730Z,17.12
2023-09-06T02:35:54.746Z,17.12
2023-09-06T02:36:54.915Z,17.12
2023-09-06T02:37:54.583Z,17.12
2023-09-06T02:38:54.137Z,17.12
2023-09-06T02:39:53.797Z,17.11
2023-09-06T02:40:57.133Z,17.06
2023-09-06T02:41:54.148Z,17.06
2023-09-06T02:42:53.605Z,17.06
2023-09-06T02:43:54.778Z,17.06
2023-09-06T02:44:54.613Z,17.06
2023-09-06T02:45:55.555Z,17.06
2023-09-06T02:46:54.779Z,17.06
2023-09-06T02:47:54.802Z,17.06
2023-09-06T02:48:54.846Z,17.06
2023-09-06T02:49:54.898Z,17.06
2023-09-06T02:50:55.751Z,17.06
2023-09-06T02:51:54.673Z,17.06
2023-09-06T02:52:55.306Z,17.06
2023-09-06T02:53:54.271Z,17.05
2023-09-06T02:54:54.740Z,17.03
2023-09-06T02:55:55.294Z,17.02
2023-09-06T02:56:54.542Z,17.01
2023-09-06T02:57:55.686Z,17
2023-09-06T02:58:55.044Z,17.01
2023-09-06T02:59:55.325Z,17
2023-09-06T03:01:03.101Z,17
2023-09-06T03:01:56.538Z,17
2023-09-06T03:02:55.275Z,17
2023-09-06T03:03:55.452Z,17
2023-09-06T03:04:55.019Z,17
2023-09-06T03:05:54.238Z,17
2023-09-06T03:06:55.904Z,17
2023-09-06T03:07:55.157Z,17
2023-09-06T03:08:55.213Z,16.98
2023-09-06T03:09:54.526Z,16.98
2023-09-06T03:10:59.032Z,16.97
2023-09-06T03:11:55.284Z,16.93
2023-09-06T03:12:54.749Z,16.93
2023-09-06T03:13:54.962Z,16.93
2023-09-06T03:14:55.279Z,16.93
2023-09-06T03:15:54.602Z,16.93
2023-09-06T03:16:54.979Z,16.93
2023-09-06T03:17:54.269Z,16.93
2023-09-06T03:18:54.259Z,16.93
2023-09-06T03:19:54.209Z,14
2023-09-06T03:20:56.892Z,16.93
2023-09-06T03:21:55.842Z,16.93
2023-09-06T03:22:55.749Z,16.93
2023-09-06T03:23:54.618Z,16.93
2023-09-06T03:24:54.885Z,16.93
2023-09-06T03:25:55.991Z,16.93
2023-09-06T03:26:54.952Z,16.90
2023-09-06T03:27:55.027Z,16.88
2023-09-06T03:28:55.043Z,16.87
2023-09-06T03:29:54.363Z,16.87
2023-09-06T03:30:57.015Z,16.87
2023-09-06T03:31:55.638Z,16.87
2023-09-06T03:32:56.268Z,16.87
2023-09-06T03:33:56.223Z,16.87
2023-09-06T03:34:54.574Z,16.87
2023-09-06T03:35:54.653Z,16.87
2023-09-06T03:36:55.689Z,16.87
2023-09-06T03:37:54.772Z,16.87
2023-09-06T03:38:54.896Z,16.87
2023-09-06T03:39:55.130Z,16.87
2023-09-06T03:40:56.577Z,16.87
2023-09-06T03:41:55.283Z,16.87
2023-09-06T03:42:55.330Z,16.87
2023-09-06T03:43:54.385Z,16.87
2023-09-06T03:44:54.898Z,16.87
2023-09-06T03:45:55.792Z,16.87
2023-09-06T03:46:55.711Z,16.86
2023-09-06T03:47:56.040Z,16.83
2023-09-06T03:48:56.123Z,16.86
2023-09-06T03:49:53.819Z,16.82
2023-09-06T03:50:56.399Z,16.81
2023-09-06T03:51:54.990Z,16.81
2023-09-06T03:52:54.655Z,16.81
2023-09-06T03:53:55.089Z,16.81
2023-09-06T03:54:54.010Z,16.81
2023-09-06T03:55:57.952Z,16.81
2023-09-06T03:56:54.459Z,16.81
2023-09-06T03:57:54.947Z,16.81
2023-09-06T03:58:54.849Z,16.81
2023-09-06T03:59:54.548Z,16.81
2023-09-06T04:00:56.566Z,16.81
2023-09-06T04:01:55.307Z,16.81
2023-09-06T04:02:55.641Z,16.81
2023-09-06T04:03:56.181Z,16.81
2023-09-06T04:04:55.228Z,16.80
2023-09-06T04:05:54.901Z,16.76
2023-09-06T04:06:54.953Z,16.76
2023-09-06T04:07:54.772Z,16.79
2023-09-06T04:08:55.488Z,16.75
2023-09-06T04:09:55.143Z,16.75
2023-09-06T04:11:00.512Z,16.75
2023-09-06T04:11:54.648Z,16.75
2023-09-06T04:12:55.227Z,16.75
2023-09-06T04:13:54.605Z,16.75
2023-09-06T04:14:57.300Z,16.75
2023-09-06T04:15:56.249Z,16.75
2023-09-06T04:16:55.186Z,16.75
2023-09-06T04:17:54.540Z,16.75
2023-09-06T04:18:54.934Z,16.75
2023-09-06T04:19:54.312Z,16.75
2023-09-06T04:20:58.794Z,16.75
2023-09-06T04:21:55.481Z,16.70
2023-09-06T04:22:55.408Z,16.71
2023-09-06T04:23:55.363Z,16.69
2023-09-06T04:24:55.223Z,16.69
2023-09-06T04:25:55.927Z,16.68
2023-09-06T04:26:56.906Z,16.68
2023-09-06T04:27:56.283Z,16.68
2023-09-06T04:28:55.551Z,16.68
2023-09-06T04:29:54.845Z,16.68
2023-09-06T04:30:57.632Z,16.68
2023-09-06T04:31:55.882Z,16.68
2023-09-06T04:32:56.469Z,16.68
2023-09-06T04:33:57.307Z,16.68
2023-09-06T04:34:54.643Z,16.68
2023-09-06T04:35:55.509Z,16.68
2023-09-06T04:36:55.002Z,16.68
2023-09-06T04:37:53.876Z,16.68
2023-09-06T04:38:54.745Z,16.68
2023-09-06T04:39:54.573Z,16.68
2023-09-06T04:40:57.055Z,16.68
2023-09-06T04:41:54.228Z,16.67
2023-09-06T04:42:54.234Z,16.62
2023-09-06T04:43:54.168Z,13
2023-09-06T04:44:54.372Z,16.62
2023-09-06T04:45:55.361Z,16.62
2023-09-06T04:46:55.140Z,16.62
2023-09-06T04:47:54.607Z,16.62
2023-09-06T04:48:55.201Z,16.62
2023-09-06T04:49:54.655Z,16.62
2023-09-06T04:50:56.474Z,16.62
2023-09-06T04:51:54.709Z,16.62
2023-09-06T04:52:55.169Z,16.62
2023-09-06T04:53:54.819Z,16.62
2023-09-06T04:54:54.973Z,16.62
2023-09-06T04:55:54.807Z,16.62
2023-09-06T04:56:55.798Z,16.62
2023-09-06T04:57:55.040Z,16.62
2023-09-06T04:58:54.641Z,16.62
2023-09-06T04:59:54.988Z,16.62
2023-09-06T05:01:00.512Z,16.62
2023-09-06T05:01:54.333Z,16.62
2023-09-06T05:02:56.466Z,16.62
2023-09-06T05:03:55.136Z,16.60
2023-09-06T05:04:54.934Z,16.62
2023-09-06T05:05:55.825Z,16.62
2023-09-06T05:06:55.167Z,16.61
2023-09-06T05:07:54.277Z,16.60
2023-09-06T05:08:54.730Z,16.60
2023-09-06T05:09:54.920Z,16.62
2023-09-06T05:10:57.519Z,16.58
2023-09-06T05:11:55.732Z,16.56
2023-09-06T05:12:55.386Z,16.56
2023-09-06T05:13:54.629Z,16.56
2023-09-06T05:14:55.307Z,16.56
2023-09-06T05:15:55.083Z,16.56
2023-09-06T05:16:55.111Z,16.56
2023-09-06T05:17:54.493Z,16.56
2023-09-06T05:18:54.983Z,16.56
2023-09-06T05:19:54.640Z,16.56
2023-09-06T05:20:56.535Z,16.56
2023-09-06T05:21:55.152Z,16.56
2023-09-06T05:22:54.659Z,16.56
2023-09-06T05:23:54.975Z,16.56
2023-09-06T05:24:54.727Z,16.56
2023-09-06T05:25:55.658Z,16.56
2023-09-06T05:26:55.779Z,16.56
2023-09-06T05:27:55.877Z,16.56
2023-09-06T05:28:55.544Z,16.56
2023-09-06T05:29:55.057Z,16.56
2023-09-06T05:30:55.701Z,16.56
2023-09-06T05:31:55.511Z,16.56
2023-09-06T05:32:55.194Z,16.56
2023-09-06T05:33:56.037Z,16.56
2023-09-06T05:34:54.292Z,16.56
2023-09-06T05:35:55.504Z,16.56
2023-09-06T05:36:54.715Z,16.56
2023-09-06T05:37:55.784Z,16.56
2023-09-06T05:38:55.694Z,16.56
2023-09-06T05:39:55.256Z,16.56
2023-09-06T05:40:56.664Z,16.56
2023-09-06T05:41:55.081Z,16.56
2023-09-06T05:42:54.569Z,16.55
2023-09-06T05:43:55.302Z,16.56
2023-09-06T05:44:54.679Z,16.56
2023-09-06T05:45:55.828Z,16.56
2023-09-06T05:46:55.902Z,16.56
2023-09-06T05:47:54.901Z,16.56
2023-09-06T05:48:55.259Z,16.56
2023-09-06T05:49:54.623Z,16.56
2023-09-06T05:50:56.052Z,16.56
2023-09-06T05:51:54.890Z,16.56
2023-09-06T05:52:55.009Z,16.56
2023-09-06T05:53:54.333Z,16.56
2023-09-06T05:54:55.957Z,16.56
2023-09-06T05:55:55.262Z,16.56
2023-09-06T05:56:55.987Z,16.56
2023-09-06T05:57:54.734Z,16.56
2023-09-06T05:58:55.512Z,16.56
2023-09-06T05:59:55.226Z,16.56
2023-09-06T06:00:59.818Z,16.56
2023-09-06T06:01:56.004Z,16.56
2023-09-06T06:02:54.919Z,16.56
2023-09-06T06:03:56.111Z,16.56
2023-09-06T06:04:55.083Z,16.56
2023-09-06T06:05:56.081Z,16.56
2023-09-06T06:06:55.102Z,16.56
2023-09-06T06:07:55.645Z,16.56
2023-09-06T06:08:55.813Z,16.56
2023-09-06T06:09:55.612Z,16.56
2023-09-06T06:11:01.582Z,16.56
2023-09-06T06:11:55.738Z,16.56
2023-09-06T06:12:56.162Z,16.56
2023-09-06T06:14:04.854Z,16.57
2023-09-06T06:14:56.085Z,16.57
2023-09-06T06:15:55.696Z,16.59
2023-09-06T06:16:57.086Z,16.61
2023-09-06T06:17:55.941Z,16.62
2023-09-06T06:18:55.078Z,16.62
2023-09-06T06:19:54.744Z,16.62
2023-09-06T06:21:12.701Z,16.62
2023-09-06T06:22:00.549Z,16.62
2023-09-06T06:22:53.931Z,16.62
2023-09-06T06:23:55.454Z,16.62
2023-09-06T06:24:54.966Z,16.62
2023-09-06T06:25:56.132Z,16.62
2023-09-06T06:26:55.004Z,16.63
2023-09-06T06:27:55.044Z,16.64
2023-09-06T06:28:55.704Z,16.68
2023-09-06T06:29:54.989Z,16.68
2023-09-06T06:30:55.355Z,16.68
2023-09-06T06:31:55.070Z,16.68
2023-09-06T06:32:55.068Z,16.68
2023-09-06T06:33:55.338Z,16.68
2023-09-06T06:34:55.208Z,16.68
2023-09-06T06:35:56.107Z,16.69
2023-09-06T06:36:55.112Z,16.68
2023-09-06T06:37:54.405Z,16.73
2023-09-06T06:38:55.665Z,16.75
2023-09-06T06:39:55.269Z,16.75
2023-09-06T06:40:56.324Z,16.75
2023-09-06T06:41:55.115Z,16.75
2023-09-06T06:42:54.909Z,16.75
2023-09-06T06:43:55.647Z,16.75
2023-09-06T06:44:55.228Z,16.75
2023-09-06T06:45:55.571Z,16.75
2023-09-06T06:46:55.066Z,16.76
2023-09-06T06:47:55.204Z,16.76
2023-09-06T06:48:55.515Z,16.80
2023-09-06T06:49:55.637Z,16.81
2023-09-06T06:50:56.339Z,16.81
2023-09-06T06:51:55.305Z,16.81
2023-09-06T06:52:54.757Z,16.81
2023-09-06T06:53:55.533Z,16.81
2023-09-06T06:54:56.202Z,16.81
2023-09-06T06:55:56.007Z,16.81
2023-09-06T06:56:55.106Z,16.81
2023-09-06T06:57:54.833Z,16.81
2023-09-06T06:58:56.056Z,16.81
2023-09-06T06:59:54.359Z,16.82
2023-09-06T07:00:56.965Z,16.84
2023-09-06T07:01:55.327Z,16.86
2023-09-06T07:02:55.823Z,16.86
2023-09-06T07:03:56.582Z,16.87
2023-09-06T07:04:58.030Z,16.87
2023-09-06T07:05:55.296Z,16.87
2023-09-06T07:06:55.954Z,16.87
2023-09-06T07:07:56.104Z,16.87
2023-09-06T07:08:55.930Z,16.87
2023-09-06T07:09:55.374Z,16.87
2023-09-06T07:11:00.287Z,16.87
2023-09-06T07:11:54.924Z,16.87
2023-09-06T07:12:55.901Z,16.87
2023-09-06T07:13:55.669Z,16.87
2023-09-06T07:14:55.963Z,16.87
2023-09-06T07:15:56.835Z,16.89
2023-09-06T07:16:55.933Z,16.92
2023-09-06T07:17:55.196Z,16.93
2023-09-06T07:18:55.612Z,16.93
2023-09-06T07:19:55.535Z,16.93
2023-09-06T07:20:57.553Z,16.93
2023-09-06T07:21:55.435Z,16.93
2023-09-06T07:22:56.127Z,16.93
2023-09-06T07:23:54.756Z,16.93
2023-09-06T07:24:55.437Z,16.93
2023-09-06T07:25:55.732Z,16.93
2023-09-06T07:26:55.515Z,16.93
2023-09-06T07:27:55.532Z,16.93
2023-09-06T07:28:55.630Z,16.93
2023-09-06T07:29:55.364Z,16.93
2023-09-06T07:30:56.607Z,16.93
2023-09-06T07:31:55.545Z,16.94
2023-09-06T07:32:55.430Z,16.93
2023-09-06T07:33:56.030Z,16.97
2023-09-06T07:34:55.586Z,16.98
2023-09-06T07:35:56.049Z,16.98
2023-09-06T07:36:54.920Z,17
2023-09-06T07:37:55.809Z,17
2023-09-06T07:38:55.920Z,17
2023-09-06T07:39:56.006Z,17
2023-09-06T07:40:57.259Z,17
2023-09-06T07:41:55.386Z,17
2023-09-06T07:42:56.050Z,17
2023-09-06T07:43:55.083Z,17
2023-09-06T07:44:54.611Z,17
2023-09-06T07:45:55.991Z,17
2023-09-06T07:46:54.856Z,17
2023-09-06T07:47:56.254Z,17
2023-09-06T07:48:56.340Z,17
2023-09-06T07:49:55.128Z,17
2023-09-06T07:50:55.509Z,17
2023-09-06T07:51:55.287Z,17
2023-09-06T07:52:55.269Z,17.04
2023-09-06T07:53:55.048Z,17.03
2023-09-06T07:54:55.600Z,17.06
2023-09-06T07:55:55.747Z,17.06
2023-09-06T07:56:55.900Z,17.06
2023-09-06T07:57:55.344Z,17.06
2023-09-06T07:58:55.460Z,17.06
2023-09-06T07:59:55.680Z,17.06
2023-09-06T08:01:15.484Z,17.06
2023-09-06T08:01:55.915Z,17.06
2023-09-06T08:02:55.616Z,17.06
2023-09-06T08:03:56.419Z,17.06
2023-09-06T08:04:55.787Z,17.06
2023-09-06T08:05:56.321Z,17.06
2023-09-06T08:06:55.540Z,17.06
2023-09-06T08:07:55.309Z,17.06
2023-09-06T08:08:56.008Z,17.07
2023-09-06T08:09:55.188Z,17.10
2023-09-06T08:10:58.029Z,17.08
2023-09-06T08:11:55.474Z,17.11
2023-09-06T08:12:56.039Z,17.12
2023-09-06T08:13:55.361Z,17.12
2023-09-06T08:14:56.318Z,17.12
2023-09-06T08:15:56.426Z,17.12
2023-09-06T08:16:55.380Z,17.12
2023-09-06T08:17:56.167Z,17.12
2023-09-06T08:18:56.491Z,17.12
2023-09-06T08:19:55.921Z,17.12
2023-09-06T08:20:57.997Z,17.12
2023-09-06T08:21:55.741Z,17.12
2023-09-06T08:23:13.263Z,17.12
2023-09-06T08:24:01.106Z,17.12
2023-09-06T08:24:55.600Z,17.12
2023-09-06T08:25:56.556Z,17.13
2023-09-06T08:26:57.068Z,17.12
2023-09-06T08:27:55.435Z,17.14
2023-09-06T08:28:55.992Z,17.14
2023-09-06T08:29:55.112Z,17.15
2023-09-06T08:30:56.628Z,17.17
2023-09-06T08:31:56.674Z,17.18
2023-09-06T08:32:56.119Z,17.18
2023-09-06T08:33:55.909Z,17.18
2023-09-06T08:34:55.381Z,17.18
2023-09-06T08:35:56.436Z,17.18
2023-09-06T08:36:57.088Z,17.18
2023-09-06T08:37:55.534Z,17.18
2023-09-06T08:38:59.043Z,17.18
2023-09-06T08:39:57.016Z,17.18
2023-09-06T08:41:03.425Z,17.18
2023-09-06T08:41:59.224Z,17.18
2023-09-06T08:42:56.204Z,17.18
2023-09-06T08:43:55.050Z,17.18
2023-09-06T08:44:55.558Z,17.18
2023-09-06T08:45:59.131Z,17.18
2023-09-06T08:46:55.771Z,17.18
2023-09-06T08:47:56.234Z,17.20
2023-09-06T08:48:56.494Z,17.20
2023-09-06T08:49:55.845Z,17.21
2023-09-06T08:50:57.600Z,17.25
2023-09-06T08:51:55.968Z,17.25
2023-09-06T08:52:55.575Z,17.25
2023-09-06T08:53:56.627Z,17.25
2023-09-06T08:54:56.084Z,17.25
2023-09-06T08:55:56.240Z,17.25
2023-09-06T08:56:55.645Z,17.25
2023-09-06T08:57:55.368Z,17.25
2023-09-06T08:58:56.238Z,17.25
2023-09-06T08:59:55.435Z,17.25
2023-09-06T09:00:59.098Z,17.25
2023-09-06T09:01:56.078Z,17.25
2023-09-06T09:02:55.851Z,17.25
2023-09-06T09:03:57.449Z,17.25
2023-09-06T09:05:05.931Z,17.25
2023-09-06T09:05:56.703Z,17.26
2023-09-06T09:06:55.888Z,17.27
2023-09-06T09:07:55.782Z,17.29
2023-09-06T09:08:56.158Z,17.31
2023-09-06T09:09:55.555Z,17.31
2023-09-06T09:11:00.841Z,17.31
2023-09-06T09:11:55.338Z,17.31
2023-09-06T09:12:55.796Z,17.31
2023-09-06T09:13:56.145Z,17.31
2023-09-06T09:14:55.237Z,17.31
2023-09-06T09:15:57.778Z,17.31
2023-09-06T09:16:56.114Z,17.31
2023-09-06T09:18:09.257Z,17.31
2023-09-06T09:18:59.570Z,17.31
2023-09-06T09:20:00.315Z,17.31
2023-09-06T09:20:56.821Z,17.31
2023-09-06T09:21:57.958Z,17.31
2023-09-06T09:22:58.872Z,17.31
2023-09-06T09:23:58.875Z,17.31
2023-09-06T09:24:58.680Z,17.31
2023-09-06T09:26:02.771Z,17.35
2023-09-06T09:26:59.638Z,17.37
2023-09-06T09:27:58.291Z,17.37
2023-09-06T09:29:00.711Z,17.37
2023-09-06T09:30:00.033Z,17.37
2023-09-06T09:31:08.175Z,17.37
2023-09-06T09:32:06.333Z,17.37
2023-09-06T09:33:06.104Z,17.37
2023-09-06T09:34:02.046Z,17.37
2023-09-06T09:35:00.926Z,17.37
2023-09-06T09:36:02.709Z,17.37
2023-09-06T09:36:58.829Z,17.37
2023-09-06T09:38:00.824Z,17.37
2023-09-06T09:38:58.776Z,17.37
2023-09-06T09:39:59.152Z,17.37
2023-09-06T09:41:27.488Z,17.37
2023-09-06T09:42:33.638Z,17.37
2023-09-06T09:43:27.221Z,17.38
2023-09-06T09:44:20.884Z,17.37
2023-09-06T09:45:16.014Z,17.38
2023-09-06T09:46:12.788Z,17.42
2023-09-06T09:47:28.524Z,17.39
2023-09-06T09:48:24.288Z,17.40
2023-09-06T09:49:17.310Z,17.41
2023-09-06T09:50:13.742Z,17.43
2023-09-06T09:51:12.815Z,17.43
2023-09-06T09:52:04.737Z,17.43
2023-09-06T09:53:15.073Z,17.43
2023-09-06T09:53:59.855Z,17.43
2023-09-06T09:55:00.637Z,17.43
2023-09-06T09:55:59.933Z,17.43
2023-09-06T09:57:02.270Z,17.43
2023-09-06T09:58:01.277Z,17.43
2023-09-06T09:59:00.101Z,17.43
2023-09-06T09:59:58.285Z,17.43
2023-09-06T10:01:09.530Z,17.43
2023-09-06T10:02:03.622Z,17.43
2023-09-06T10:03:09.320Z,17.43
2023-09-06T10:04:06.035Z,17.43
2023-09-06T10:05:05.162Z,17.43
2023-09-06T10:06:01.792Z,17.43
2023-09-06T10:06:59.967Z,17.45
2023-09-06T10:08:19.241Z,17.48
2023-09-06T10:09:15.986Z,17.5
2023-09-06T10:10:13.439Z,17.5
2023-09-06T10:11:15.463Z,17.5
2023-09-06T10:12:14.279Z,17.5
2023-09-06T10:13:12.948Z,17.5
2023-09-06T10:14:02.894Z,17.5
2023-09-06T10:15:02.174Z,17.5
2023-09-06T10:16:01.511Z,17.54
2023-09-06T10:16:59.928Z,17.56
2023-09-06T10:17:59.446Z,17.56
2023-09-06T10:18:59.892Z,17.55
2023-09-06T10:20:27.985Z,17.51
2023-09-06T10:21:27.400Z,17.53
2023-09-06T10:22:20.394Z,17.52
2023-09-06T10:23:14.011Z,17.53
2023-09-06T10:24:10.662Z,17.5
2023-09-06T10:25:06.837Z,17.54
2023-09-06T10:26:05.202Z,17.56
2023-09-06T10:27:02.196Z,17.55
2023-09-06T10:27:58.729Z,17.56
2023-09-06T10:29:01.139Z,17.56
2023-09-06T10:30:04.746Z,17.56
2023-09-06T10:31:05.092Z,17.56
2023-09-06T10:32:01.532Z,17.56
2023-09-06T10:33:13.177Z,17.56
2023-09-06T10:34:14.103Z,17.56
2023-09-06T10:35:10.852Z,17.56
2023-09-06T10:36:09.420Z,17.56
2023-09-06T10:37:11.222Z,17.56
2023-09-06T10:38:11.199Z,17.56
2023-09-06T10:39:04.301Z,17.56
2023-09-06T10:39:59.856Z,17.56
2023-09-06T10:41:14.172Z,17.58
2023-09-06T10:42:09.627Z,17.56
2023-09-06T10:43:03.337Z,17.56
2023-09-06T10:44:00.090Z,17.57
2023-09-06T10:45:00.316Z,17.61
2023-09-06T10:46:01.546Z,17.62
2023-09-06T10:47:01.386Z,17.62
2023-09-06T10:48:02.042Z,17.62
2023-09-06T10:49:00.729Z,17.62
2023-09-06T10:50:00.582Z,17.62
2023-09-06T10:51:01.718Z,17.62
2023-09-06T10:51:58.048Z,17.62
2023-09-06T10:53:00.674Z,17.62
2023-09-06T10:53:58.585Z,17.62
2023-09-06T10:54:59.959Z,17.62
2023-09-06T10:56:01.940Z,17.62
2023-09-06T10:57:00.580Z,17.62
2023-09-06T10:57:59.756Z,17.62
2023-09-06T10:59:02.155Z,17.62
2023-09-06T10:59:58.653Z,17.62
2023-09-06T11:01:14.144Z,17.62
2023-09-06T11:02:27.054Z,17.62
2023-09-06T11:03:21.342Z,17.62
2023-09-06T11:04:16.190Z,17.62
2023-09-06T11:05:11.977Z,17.62
2023-09-06T11:06:05.393Z,17.64
2023-09-06T11:07:02.912Z,17.66
2023-09-06T11:08:19.845Z,17.63
2023-09-06T11:09:14.323Z,17.65
2023-09-06T11:10:10.210Z,17.63
2023-09-06T11:11:17.085Z,17.67
2023-09-06T11:12:13.122Z,17.68
2023-09-06T11:13:11.315Z,17.68
2023-09-06T11:14:03.576Z,17.68
2023-09-06T11:15:01.459Z,17.68
2023-09-06T11:16:01.721Z,17.68
2023-09-06T11:16:58.499Z,17.68
2023-09-06T11:18:00.004Z,17.68
2023-09-06T11:18:59.792Z,17.68
2023-09-06T11:19:58.261Z,17.68
2023-09-06T11:21:05.242Z,17.68
2023-09-06T11:22:00.922Z,17.68
2023-09-06T11:22:59.311Z,17.68
2023-09-06T11:23:58.390Z,17.68
2023-09-06T11:24:59.568Z,17.68
2023-09-06T11:26:00.883Z,17.68
2023-09-06T11:26:59.849Z,17.68
2023-09-06T11:27:58.141Z,17.68
2023-09-06T11:29:00.022Z,17.68
2023-09-06T11:29:57.367Z,17.68
2023-09-06T11:31:04.195Z,17.68
2023-09-06T11:31:59.829Z,17.70
2023-09-06T11:32:59.797Z,17.73
2023-09-06T11:33:59.636Z,17.73
2023-09-06T11:35:00.323Z,17.75
2023-09-06T11:36:00.455Z,17.75
2023-09-06T11:36:59.271Z,17.75
2023-09-06T11:37:58.350Z,17.75
2023-09-06T11:38:58.841Z,17.75
2023-09-06T11:39:59.592Z,17.75
2023-09-06T11:41:12.720Z,17.75
2023-09-06T11:42:10.954Z,17.75
2023-09-06T11:43:01.720Z,17.75
2023-09-06T11:43:57.353Z,17.75
2023-09-06T11:44:58.834Z,17.75
2023-09-06T11:45:59.545Z,17.75
2023-09-06T11:47:00.167Z,17.75
2023-09-06T11:47:57.943Z,17.75
2023-09-06T11:48:56.283Z,17.77
2023-09-06T11:49:58.368Z,17.76
2023-09-06T11:51:01.282Z,17.80
2023-09-06T11:51:57.340Z,17.80
2023-09-06T11:53:21.001Z,17.81
2023-09-06T11:54:13.239Z,17.81
2023-09-06T11:55:02.231Z,17.81
2023-09-06T11:55:59.507Z,17.81
2023-09-06T11:56:58.639Z,17.81
2023-09-06T11:57:57.518Z,17.81
2023-09-06T11:58:57.943Z,17.81
2023-09-06T11:59:57.262Z,17.81
2023-09-06T12:01:03.155Z,17.81
2023-09-06T12:01:57.401Z,17.81
2023-09-06T12:02:57.240Z,17.81
2023-09-06T12:03:57.221Z,17.81
2023-09-06T12:04:58.027Z,17.81
2023-09-06T12:06:19.520Z,17.84
2023-09-06T12:07:13.635Z,17.85
2023-09-06T12:08:02.724Z,17.87
2023-09-06T12:08:58.417Z,17.87
2023-09-06T12:09:58.058Z,17.87
2023-09-06T12:11:14.664Z,17.87
2023-09-06T12:12:05.864Z,17.87
2023-09-06T12:12:59.060Z,17.87
2023-09-06T12:13:55.240Z,17.87
2023-09-06T12:14:56.502Z,17.87
2023-09-06T12:15:57.350Z,17.87
2023-09-06T12:16:56.880Z,17.87
2023-09-06T12:17:57.721Z,14
2023-09-06T12:18:57.551Z,17.93
2023-09-06T12:19:56.441Z,17.93
2023-09-06T12:21:01.445Z,17.91
2023-09-06T12:21:57.627Z,17.93
2023-09-06T12:22:56.782Z,17.91
2023-09-06T12:24:00.955Z,17.93
2023-09-06T12:24:56.669Z,17.93
2023-09-06T12:25:57.540Z,17.93
2023-09-06T12:26:57.407Z,17.93
2023-09-06T12:27:56.108Z,17.93
2023-09-06T12:28:58.531Z,17.93
2023-09-06T12:29:56.539Z,17.93
2023-09-06T12:30:59.233Z,17.93
2023-09-06T12:31:56.638Z,17.94
2023-09-06T12:32:58.624Z,17.93
2023-09-06T12:33:58.061Z,17.95
2023-09-06T12:34:56.722Z,18
2023-09-06T12:35:58.816Z,17.98
2023-09-06T12:36:57.209Z,17.98
2023-09-06T12:37:56.376Z,18
2023-09-06T12:38:57.396Z,18
2023-09-06T12:39:56.421Z,18
2023-09-06T12:41:01.481Z,18
2023-09-06T12:41:57.927Z,18
2023-09-06T12:42:57.466Z,18
2023-09-06T12:43:56.510Z,18
2023-09-06T12:44:57.705Z,18
2023-09-06T12:45:58.686Z,18
2023-09-06T12:46:57.731Z,18
2023-09-06T12:47:57.162Z,18
2023-09-06T12:48:58.882Z,18
2023-09-06T12:49:57.300Z,18
2023-09-06T12:51:01.874Z,18
2023-09-06T12:51:57.202Z,18
2023-09-06T12:52:57.218Z,18.01
2023-09-06T12:53:57.186Z,18.03
2023-09-06T12:54:57.324Z,18.03
2023-09-06T12:55:59.536Z,18.06
2023-09-06T12:56:58.117Z,18.06
2023-09-06T12:57:57.193Z,18.06